Time;durP1;ratioP1;P1;durP2;ratioP2;P2;SDS_P1;SDS_P2;PMS_P1;PMS_P2;Temp;Humidity;BMP_temperature;BMP_pressure;BME280_temperature;BME280_humidity;BME280_pressure;Samples;Min_cycle;Max_cycle;Signal;HPM_P1;HPM_P2
2021/07/04 00:03:20;;;;;;;6.47;4.00;;;;;;;0.01;0.00;59042.03;10274473;28;20083;-58
2021/07/04 00:08:21;;;;;;;7.07;2.38;;;;;;;0.01;0.00;59042.03;10274220;28;20490;-58
2021/07/04 00:13:21;;;;;;;2.55;2.20;;;;;;;0.01;0.00;59042.03;10276817;28;20470;-58
2021/07/04 00:18:24;;;;;;;3.53;3.22;;;;;;;0.01;0.00;59042.03;10282330;28;20068;-58
2021/07/04 00:23:23;;;;;;;4.88;2.55;;;;;;;0.01;0.00;59042.03;10281738;28;20087;-58
2021/07/04 00:28:23;;;;;;;5.60;2.70;;;;;;;0.01;0.00;59042.03;10281912;28;20445;-58
2021/07/04 00:33:24;;;;;;;4.45;3.25;;;;;;;0.01;0.00;59042.03;10281226;28;20557;-58
2021/07/04 00:38:23;;;;;;;6.45;3.00;;;;;;;0.01;0.00;59042.03;10263417;28;20049;-58
2021/07/04 00:43:22;;;;;;;6.38;2.75;;;;;;;0.01;0.00;59042.03;10280976;28;20096;-59
2021/07/04 00:48:23;;;;;;;5.60;3.10;;;;;;;0.01;0.00;59042.03;10280907;28;20064;-59
2021/07/04 00:53:23;;;;;;;8.15;2.83;;;;;;;0.01;0.00;59042.03;10262933;28;20052;-59
2021/07/04 00:58:22;;;;;;;5.18;3.25;;;;;;;0.01;0.00;59042.03;10262613;28;20049;-59
2021/07/04 01:03:26;;;;;;;5.68;3.42;;;;;;;0.01;0.00;59042.03;10262487;28;20049;-59
2021/07/04 01:08:28;;;;;;;8.07;3.42;;;;;;;0.01;0.00;59042.03;10280532;28;20414;-58
2021/07/04 01:13:28;;;;;;;6.53;3.80;;;;;;;0.01;0.00;59042.03;10279783;28;20063;-59
2021/07/04 01:18:55;;;;;;;4.70;3.45;;;;;;;0.01;0.00;59042.03;10275869;28;20049;-59
2021/07/04 01:24:03;;;;;;;5.70;3.80;;;;;;;0.01;0.00;59042.03;10260625;28;20053;-58
2021/07/04 01:29:03;;;;;;;5.07;3.63;;;;;;;0.01;0.00;59042.03;10279753;28;20084;-58
2021/07/04 01:34:03;;;;;;;6.70;3.35;;;;;;;0.01;0.00;59042.03;10260848;28;20045;-58
2021/07/04 01:39:07;;;;;;;6.53;3.85;;;;;;;0.01;0.00;59042.03;10279483;28;20049;-58
2021/07/04 01:44:13;;;;;;;9.52;3.40;;;;;;;0.01;0.00;59042.03;10278889;28;20095;-56
2021/07/04 01:49:12;;;;;;;7.60;3.78;;;;;;;0.01;0.00;59042.03;10278620;28;20080;-57
2021/07/04 01:54:16;;;;;;;4.03;3.63;;;;;;;0.01;0.00;59042.03;10260936;28;20068;-58
2021/07/04 01:59:16;;;;;;;4.63;3.47;;;;;;;0.01;0.00;59042.03;10260493;28;20041;-57
2021/07/04 02:04:24;;;;;;;6.22;4.00;;;;;;;0.01;0.00;59042.03;10260319;28;20410;-55
2021/07/04 02:09:37;;;;;;;3.28;2.97;;;;;;;0.01;0.00;59042.03;10260588;28;20414;-56
2021/07/04 02:14:36;;;;;;;6.75;3.30;;;;;;;0.01;0.00;59042.03;10259692;28;20056;-53
2021/07/04 02:19:44;;;;;;;5.15;3.60;;;;;;;0.01;0.00;59042.03;10259626;28;20061;-56
2021/07/04 02:24:59;;;;;;;4.32;3.88;;;;;;;0.01;0.00;59042.03;10259160;28;20095;-55
2021/07/04 02:30:11;;;;;;;5.30;3.97;;;;;;;0.01;0.00;59042.03;10277775;28;20048;-56
2021/07/04 02:35:13;;;;;;;4.30;3.65;;;;;;;0.01;0.00;59042.03;10259032;28;20060;-57
2021/07/04 02:40:14;;;;;;;3.45;3.15;;;;;;;0.01;0.00;59042.03;10258648;28;20449;-55
2021/07/04 02:45:16;;;;;;;4.35;3.95;;;;;;;0.01;0.00;59042.03;10258108;28;20096;-57
2021/07/04 02:50:21;;;;;;;3.83;3.53;;;;;;;0.01;0.00;59042.03;10258812;28;20596;-56
2021/07/04 02:55:23;;;;;;;7.57;3.97;;;;;;;0.01;0.00;59042.03;10276939;28;20076;-56
2021/07/04 03:00:25;;;;;;;4.60;3.88;;;;;;;0.01;0.00;59042.03;10258477;28;20045;-57
2021/07/04 03:05:25;;;;;;;6.47;3.72;;;;;;;0.01;0.00;59042.03;10275599;28;20107;-57
2021/07/04 03:10:25;;;;;;;5.50;3.92;;;;;;;0.01;0.00;59042.03;10275398;28;20048;-56
2021/07/04 03:15:27;;;;;;;4.22;3.75;;;;;;;0.01;0.00;59042.03;10275541;28;20069;-56
2021/07/04 03:20:29;;;;;;;4.20;3.70;;;;;;;0.01;0.00;59042.03;10275150;28;20053;-57
2021/07/04 03:25:38;;;;;;;7.18;4.20;;;;;;;0.01;0.00;59042.03;10257225;28;20426;-57
2021/07/04 03:30:39;;;;;;;6.25;4.43;;;;;;;0.01;0.00;59042.03;10257506;28;20064;-57
2021/07/04 03:35:39;;;;;;;6.47;4.13;;;;;;;0.01;0.00;59042.03;10257209;28;20047;-57
2021/07/04 03:40:42;;;;;;;4.32;3.72;;;;;;;0.01;0.00;59042.03;10275481;28;20037;-57
2021/07/04 03:45:53;;;;;;;4.68;3.92;;;;;;;0.01;0.00;59042.03;10274533;28;20084;-56
2021/07/04 03:50:52;;;;;;;6.25;4.38;;;;;;;0.01;0.00;59042.03;10254245;28;20041;-55
2021/07/04 03:55:54;;;;;;;7.75;4.40;;;;;;;0.01;0.00;59042.03;10252656;28;20084;-57
2021/07/04 04:00:54;;;;;;;4.97;4.47;;;;;;;0.01;0.00;59042.03;10270587;28;20072;-57
2021/07/04 04:06:02;;;;;;;7.90;4.70;;;;;;;0.01;0.00;59042.03;10253595;28;20096;-56
2021/07/04 04:11:15;;;;;;;10.57;4.50;;;;;;;0.01;0.00;59042.03;10256524;28;20060;-56
2021/07/04 04:16:18;;;;;;;6.05;5.43;;;;;;;0.01;0.00;59042.03;10273855;28;20457;-56
2021/07/04 04:21:17;;;;;;;7.22;6.20;;;;;;;0.01;0.00;59042.03;10256145;28;20061;-56
2021/07/04 04:26:27;;;;;;;11.43;5.80;;;;;;;0.01;0.00;59042.03;10274688;28;20076;-60
2021/07/04 04:31:28;;;;;;;6.97;6.20;;;;;;;0.01;0.00;59042.03;10274263;28;20033;-56
2021/07/04 04:36:29;;;;;;;5.40;4.88;;;;;;;0.01;0.00;59042.03;10273483;28;20097;-57
2021/07/04 04:41:29;;;;;;;8.77;6.40;;;;;;;0.01;0.00;59042.03;10273987;28;20048;-55
2021/07/04 04:46:27;;;;;;;6.15;5.55;;;;;;;0.01;0.00;59042.03;10272986;28;20096;-55
2021/07/04 04:51:27;;;;;;;8.55;7.70;;;;;;;0.01;0.00;59042.03;10273626;28;20068;-56
2021/07/04 04:56:25;;;;;;;8.63;5.70;;;;;;;0.01;0.00;59042.03;10274096;28;20498;-56
2021/07/04 05:01:27;;;;;;;5.97;5.38;;;;;;;0.01;0.00;59042.03;10276783;28;20077;-57
2021/07/04 05:06:26;;;;;;;6.75;6.15;;;;;;;0.01;0.00;59042.03;10280789;28;20092;-57
2021/07/04 05:11:25;;;;;;;7.60;5.75;;;;;;;0.01;0.00;59042.03;10280282;28;20541;-57
2021/07/04 05:16:24;;;;;;;6.93;5.53;;;;;;;0.01;0.00;59042.03;10278987;28;20053;-56
2021/07/04 05:21:24;;;;;;;8.95;5.40;;;;;;;0.01;0.00;59042.03;10280086;28;20448;-56
2021/07/04 05:26:23;;;;;;;8.80;5.78;;;;;;;0.01;0.00;59042.03;10280348;28;20083;-56
2021/07/04 05:31:21;;;;;;;6.75;5.78;;;;;;;0.01;0.00;59042.03;10280275;28;20041;-55
2021/07/04 05:36:20;;;;;;;6.47;5.82;;;;;;;0.01;0.00;59042.03;10280154;28;20044;-56
2021/07/04 05:41:21;;;;;;;7.47;6.70;;;;;;;0.01;0.00;59042.03;10279157;28;20084;-55
2021/07/04 05:46:19;;;;;;;8.50;6.10;;;;;;;0.01;0.00;59042.03;10278852;28;20053;-57
2021/07/04 05:51:18;;;;;;;7.90;7.05;;;;;;;0.01;0.00;59042.03;10278593;28;20045;-56
2021/07/04 05:56:17;;;;;;;7.38;6.68;;;;;;;0.01;0.00;59042.03;10274994;28;20430;-56
2021/07/04 06:01:18;;;;;;;7.25;6.55;;;;;;;0.01;0.00;59042.03;10266382;28;20471;-57
2021/07/04 06:06:17;;;;;;;8.23;7.43;;;;;;;0.01;0.00;59042.03;10270117;28;20084;-55
2021/07/04 06:11:16;;;;;;;9.63;8.30;;;;;;;0.01;0.00;59042.03;10243435;28;20096;-49
2021/07/04 06:16:15;;;;;;;9.00;7.20;;;;;;;0.01;0.00;59042.03;10272823;28;20076;-50
2021/07/04 06:21:15;;;;;;;6.93;6.22;;;;;;;0.01;0.00;59042.03;10239307;28;20501;-55
2021/07/04 06:26:14;;;;;;;8.10;6.65;;;;;;;0.01;0.00;59042.03;10269077;28;20076;-57
2021/07/04 06:31:13;;;;;;;6.82;6.22;;;;;;;0.01;0.00;59042.03;10270910;28;20479;-56
2021/07/04 06:36:12;;;;;;;6.43;5.30;;;;;;;0.01;0.00;59042.03;10271647;28;20068;-58
2021/07/04 06:41:12;;;;;;;6.35;5.70;;;;;;;0.01;0.00;59042.03;10272893;28;20537;-57
2021/07/04 06:46:11;;;;;;;6.13;5.53;;;;;;;0.01;0.00;59042.03;10303162;28;20135;-57
2021/07/04 06:51:10;;;;;;;8.50;6.25;;;;;;;0.01;0.00;59042.03;10317057;28;20087;-56
2021/07/04 06:56:08;;;;;;;10.43;8.25;;;;;;;0.01;0.00;59042.03;10316113;28;20053;-57
2021/07/04 07:01:12;;;;;;;6.10;5.50;;;;;;;0.01;0.00;59042.03;10316907;28;20080;-56
2021/07/04 07:06:11;;;;;;;8.15;7.43;;;;;;;0.01;0.00;59042.03;10316694;28;20083;-57
2021/07/04 07:11:10;;;;;;;5.90;5.30;;;;;;;0.01;0.00;59042.03;10297634;28;20051;-57
2021/07/04 07:16:10;;;;;;;6.03;5.05;;;;;;;0.01;0.00;59042.03;10316047;28;20496;-57
2021/07/04 07:21:09;;;;;;;10.50;5.43;;;;;;;0.01;0.00;59042.03;10316127;28;20049;-57
2021/07/04 07:26:08;;;;;;;8.70;6.18;;;;;;;0.01;0.00;59042.03;10316132;28;20118;-57
2021/07/04 07:31:06;;;;;;;7.82;4.90;;;;;;;0.01;0.00;59042.03;10315692;28;20048;-56
2021/07/04 07:36:07;;;;;;;5.82;4.88;;;;;;;0.01;0.00;59042.03;10316604;28;20064;-56
2021/07/04 07:41:06;;;;;;;30.85;27.52;;;;;;;0.01;0.00;59042.03;10315262;28;20312;-57
2021/07/04 07:46:05;;;;;;;10.15;8.25;;;;;;;0.01;0.00;59042.03;10297214;28;20067;-57
2021/07/04 07:51:04;;;;;;;11.95;6.13;;;;;;;0.01;0.00;59042.03;10316282;28;20044;-58
2021/07/04 07:56:05;;;;;;;8.25;5.78;;;;;;;0.01;0.00;59042.03;10315185;28;20410;-58
2021/07/04 08:01:16;;;;;;;6.72;4.35;;;;;;;0.01;0.00;59042.03;10316162;28;20072;-58
2021/07/04 08:06:17;;;;;;;10.10;5.57;;;;;;;0.01;0.00;59042.03;10296591;28;20532;-58
2021/07/04 08:11:17;;;;;;;5.60;3.67;;;;;;;0.01;0.00;59042.03;10315819;28;20072;-58
2021/07/04 08:16:16;;;;;;;7.70;4.47;;;;;;;0.01;0.00;59042.03;10315493;28;20421;-58
2021/07/04 08:21:15;;;;;;;4.45;3.40;;;;;;;0.01;0.00;59042.03;10300806;28;20047;-56
2021/07/04 08:26:14;;;;;;;9.48;6.00;;;;;;;0.01;0.00;59042.03;10315690;28;20090;-53
2021/07/04 08:31:14;;;;;;;5.10;4.60;;;;;;;0.01;0.00;59042.03;10296418;28;20075;-55
2021/07/04 08:36:13;;;;;;;8.60;5.07;;;;;;;0.01;0.00;59042.03;10306106;28;20601;-57
2021/07/04 08:41:13;;;;;;;4.82;4.22;;;;;;;0.01;0.00;59042.03;10322079;28;20083;-57
2021/07/04 08:46:13;;;;;;;5.00;3.88;;;;;;;0.01;0.00;59042.03;10294402;28;20073;-57
2021/07/04 08:51:13;;;;;;;4.35;3.70;;;;;;;0.01;0.00;59042.03;10278281;28;20076;-57
2021/07/04 08:56:12;;;;;;;6.90;4.03;;;;;;;0.01;0.00;59042.03;10276250;28;20479;-58
2021/07/04 09:01:15;;;;;;;9.13;4.32;;;;;;;0.01;0.00;59042.03;10269363;28;20175;-56
2021/07/04 09:06:15;;;;;;;4.40;4.00;;;;;;;0.01;0.00;59042.03;10272666;28;20915;-57
2021/07/04 09:11:16;;;;;;;6.28;4.57;;;;;;;0.01;0.00;59042.03;10272023;28;20068;-57
2021/07/04 09:16:20;;;;;;;3.80;3.33;;;;;;;0.01;0.00;59042.03;10280547;28;20083;-58
2021/07/04 09:21:22;;;;;;;9.35;7.97;;;;;;;0.01;0.00;59042.03;10276142;28;20072;-57
2021/07/04 09:26:39;;;;;;;3.60;3.30;;;;;;;0.01;0.00;59042.03;10276435;28;20072;-58
2021/07/04 09:31:40;;;;;;;4.55;3.08;;;;;;;0.01;0.00;59042.03;10259031;28;20099;-58
2021/07/04 09:36:41;;;;;;;6.47;3.55;;;;;;;0.01;0.00;59042.03;10276271;28;20068;-57
2021/07/04 09:41:40;;;;;;;9.90;6.55;;;;;;;0.01;0.00;59042.03;10278124;28;20477;-58
2021/07/04 09:46:40;;;;;;;3.53;3.10;;;;;;;0.01;0.00;59042.03;10300160;28;20087;-58
2021/07/04 09:51:39;;;;;;;5.68;4.20;;;;;;;0.01;0.00;59042.03;10317545;28;20072;-58
2021/07/04 09:56:38;;;;;;;10.15;5.70;;;;;;;0.01;0.00;59042.03;10318235;28;20075;-53
2021/07/04 10:01:39;;;;;;;7.35;3.83;;;;;;;0.01;0.00;59042.03;10294781;28;20100;-57
2021/07/04 10:06:49;;;;;;;7.35;3.63;;;;;;;0.01;0.00;59042.03;10316532;28;20103;-58
2021/07/04 10:11:49;;;;;;;4.88;4.35;;;;;;;0.01;0.00;59042.03;10318300;28;20513;-57
2021/07/04 10:16:49;;;;;;;4.65;4.25;;;;;;;0.01;0.00;59042.03;10317876;28;20405;-57
2021/07/04 10:21:51;;;;;;;6.25;4.85;;;;;;;0.01;0.00;59042.03;10317496;28;20047;-57
2021/07/04 10:26:51;;;;;;;5.20;3.80;;;;;;;0.01;0.00;59042.03;10318100;28;20048;-58
2021/07/04 10:31:50;;;;;;;9.60;8.38;;;;;;;0.01;0.00;59042.03;10318922;28;20044;-58
2021/07/04 10:37:01;;;;;;;4.03;3.63;;;;;;;0.01;0.00;59042.03;10314566;28;20068;-57
2021/07/04 10:42:02;;;;;;;7.90;4.40;;;;;;;0.01;0.00;59042.03;10318480;28;20036;-58
2021/07/04 10:47:09;;;;;;;9.65;5.40;;;;;;;0.01;0.00;59042.03;10317970;28;20075;-58
2021/07/04 10:52:13;;;;;;;4.53;3.60;;;;;;;0.01;0.00;59042.03;10316471;28;20063;-58
2021/07/04 10:57:14;;;;;;;12.75;8.00;;;;;;;0.01;0.00;59042.03;10317886;28;20049;-59
2021/07/04 11:02:39;;;;;;;3.38;3.08;;;;;;;0.01;0.00;59042.03;10315700;28;20090;-58
2021/07/04 11:08:17;;;;;;;4.13;3.72;;;;;;;0.01;0.00;59042.03;10307809;28;20099;-56
2021/07/04 11:13:30;;;;;;;6.75;3.15;;;;;;;0.01;0.00;59042.03;10312096;28;20402;-54
2021/07/04 11:18:38;;;;;;;2.95;2.60;;;;;;;0.01;0.00;59042.03;10315527;28;20045;-58
2021/07/04 11:23:37;;;;;;;6.68;2.85;;;;;;;0.01;0.00;59042.03;10310642;28;20063;-55
2021/07/04 11:28:37;;;;;;;3.42;3.13;;;;;;;0.01;0.00;59042.03;10314578;28;20470;-57
2021/07/04 11:33:39;;;;;;;4.82;3.47;;;;;;;0.01;0.00;59042.03;10315404;28;20064;-58
2021/07/04 11:38:39;;;;;;;6.40;4.80;;;;;;;0.01;0.00;59042.03;10314202;28;20087;-58
2021/07/04 11:43:39;;;;;;;4.10;3.70;;;;;;;0.01;0.00;59042.03;10310120;28;20506;-55
2021/07/04 11:48:55;;;;;;;5.60;2.70;;;;;;;0.01;0.00;59042.03;10300571;28;20069;-57
2021/07/04 11:53:56;;;;;;;5.43;3.58;;;;;;;0.01;0.00;59042.03;10301408;28;20075;-55
2021/07/04 11:59:16;;;;;;;3.40;3.10;;;;;;;0.01;0.00;59042.03;10299741;28;20075;-58
2021/07/04 12:04:18;;;;;;;3.47;3.15;;;;;;;0.01;0.00;59042.03;10314608;28;20068;-58
2021/07/04 12:09:17;;;;;;;3.50;2.38;;;;;;;0.01;0.00;59042.03;10317728;28;20155;-57
2021/07/04 12:14:27;;;;;;;4.10;3.70;;;;;;;0.01;0.00;59042.03;10285935;28;20087;-59
2021/07/04 12:19:29;;;;;;;4.75;2.70;;;;;;;0.01;0.00;59042.03;10322459;28;20408;-58
2021/07/04 12:24:37;;;;;;;4.65;2.60;;;;;;;0.01;0.00;59042.03;10322585;28;20068;-58
2021/07/04 12:29:59;;;;;;;4.65;2.55;;;;;;;0.01;0.00;59042.03;10322492;28;20524;-58
2021/07/04 12:34:59;;;;;;;3.00;2.72;;;;;;;0.01;0.00;59042.03;10281607;28;20041;-58
2021/07/04 12:40:14;;;;;;;4.82;2.92;;;;;;;0.01;0.00;59042.03;10284567;28;20535;-57
2021/07/04 12:45:16;;;;;;;5.60;3.88;;;;;;;0.01;0.00;59042.03;10261791;28;20061;-58
2021/07/04 12:50:17;;;;;;;3.63;3.15;;;;;;;0.01;0.00;59042.03;10240592;28;20506;-58
2021/07/04 12:55:38;;;;;;;5.07;3.65;;;;;;;0.01;0.00;59042.03;10241021;28;20053;-57
2021/07/04 13:00:37;;;;;;;9.27;3.80;;;;;;;0.01;0.00;59042.03;10240384;28;20487;-58
2021/07/04 13:05:39;;;;;;;3.35;3.05;;;;;;;0.01;0.00;59042.03;10240336;28;20046;-58
2021/07/04 13:10:38;;;;;;;8.73;5.13;;;;;;;0.01;0.00;59042.03;10239667;28;20073;-58
2021/07/04 13:15:38;;;;;;;3.15;2.85;;;;;;;0.01;0.00;59042.03;10266317;28;20049;-58
2021/07/04 13:20:41;;;;;;;5.43;3.45;;;;;;;0.01;0.00;59042.03;10278649;28;20072;-57
2021/07/04 13:25:45;;;;;;;3.90;3.38;;;;;;;0.01;0.00;59042.03;10280687;28;20045;-58
2021/07/04 13:30:47;;;;;;;6.88;3.22;;;;;;;0.01;0.00;59042.03;10280560;28;20076;-58
2021/07/04 13:35:48;;;;;;;5.30;4.10;;;;;;;0.01;0.00;59042.03;10279149;28;20048;-58
2021/07/04 13:40:49;;;;;;;3.58;3.28;;;;;;;0.01;0.00;59042.03;10255394;28;20049;-58
2021/07/04 13:45:50;;;;;;;10.52;3.90;;;;;;;0.01;0.00;59042.03;10278645;28;20061;-58
2021/07/04 13:50:53;;;;;;;5.15;2.97;;;;;;;0.01;0.00;59042.03;10278304;28;20081;-57
2021/07/04 13:55:53;;;;;;;7.50;4.15;;;;;;;0.01;0.00;59042.03;10275230;28;20076;-55
2021/07/04 14:00:55;;;;;;;9.10;3.22;;;;;;;0.01;0.00;59042.03;10264230;28;20080;-56
2021/07/04 14:05:55;;;;;;;5.18;3.20;;;;;;;0.01;0.00;59042.03;10274079;28;20088;-57
2021/07/04 14:10:54;;;;;;;7.68;4.47;;;;;;;0.01;0.00;59042.03;10275488;28;20600;-58
2021/07/04 14:15:53;;;;;;;4.40;3.67;;;;;;;0.01;0.00;59042.03;10275973;28;20067;-58
2021/07/04 14:20:52;;;;;;;3.40;3.05;;;;;;;0.01;0.00;59042.03;10273500;28;20061;-58
2021/07/04 14:25:52;;;;;;;6.35;3.72;;;;;;;0.01;0.00;59042.03;10275328;28;20072;-54
2021/07/04 14:30:51;;;;;;;7.60;3.45;;;;;;;0.01;0.00;59042.03;10275278;28;20084;-56
2021/07/04 14:35:49;;;;;;;7.45;5.57;;;;;;;0.01;0.00;59042.03;10272386;28;20095;-58
2021/07/04 14:40:48;;;;;;;5.07;3.50;;;;;;;0.01;0.00;59042.03;10274866;28;20130;-58
2021/07/04 14:45:49;;;;;;;6.00;3.33;;;;;;;0.01;0.00;59042.03;10292945;28;20076;-58
2021/07/04 14:50:50;;;;;;;6.95;3.83;;;;;;;0.01;0.00;59042.03;10317402;28;20075;-58
2021/07/04 14:55:50;;;;;;;5.63;3.38;;;;;;;0.01;0.00;59042.03;10312192;28;20064;-58
2021/07/04 15:00:50;;;;;;;6.28;3.88;;;;;;;0.01;0.00;59042.03;10302897;28;20476;-58
2021/07/04 15:05:51;;;;;;;7.00;3.72;;;;;;;0.01;0.00;59042.03;10316139;28;20409;-58
2021/07/04 15:10:50;;;;;;;3.85;3.30;;;;;;;0.01;0.00;59042.03;10315411;28;20457;-57
2021/07/04 15:15:50;;;;;;;4.18;2.72;;;;;;;0.01;0.00;59042.03;10311648;28;20064;-59
2021/07/04 15:20:49;;;;;;;7.55;5.72;;;;;;;0.01;0.00;59042.03;10295209;28;20068;-58
2021/07/04 15:25:47;;;;;;;12.15;5.35;;;;;;;0.01;0.00;59042.03;10315104;28;20079;-58
2021/07/04 15:30:47;;;;;;;7.28;6.53;;;;;;;0.01;0.00;59042.03;10311788;28;20071;-58
2021/07/04 15:35:47;;;;;;;9.45;5.53;;;;;;;0.01;0.00;59042.03;10315653;28;20519;-54
2021/07/04 15:40:47;;;;;;;10.65;5.82;;;;;;;0.01;0.00;59042.03;10312235;28;20068;-58
2021/07/04 15:45:46;;;;;;;13.13;5.10;;;;;;;0.01;0.00;59042.03;10310710;28;20076;-57
2021/07/04 15:50:49;;;;;;;17.40;5.85;;;;;;;0.01;0.00;59042.03;10310672;28;20075;-56
2021/07/04 15:55:48;;;;;;;14.60;7.20;;;;;;;0.01;0.00;59042.03;10288931;28;20083;-56
2021/07/04 16:00:47;;;;;;;7.32;5.30;;;;;;;0.01;0.00;59042.03;10306275;28;20094;-52
2021/07/04 16:05:45;;;;;;;8.77;5.75;;;;;;;0.01;0.00;59042.03;10302354;28;20037;-58
2021/07/04 16:10:46;;;;;;;11.18;6.20;;;;;;;0.01;0.00;59042.03;10310821;28;20170;-57
2021/07/04 16:15:45;;;;;;;13.15;8.15;;;;;;;0.01;0.00;59042.03;10310076;28;20064;-60
2021/07/04 16:20:43;;;;;;;4.55;4.15;;;;;;;0.01;0.00;59042.03;10312626;28;20080;-57
2021/07/04 16:25:43;;;;;;;7.25;4.97;;;;;;;0.01;0.00;59042.03;10313481;28;20083;-56
2021/07/04 16:30:43;;;;;;;11.20;7.07;;;;;;;0.01;0.00;59042.03;10310606;28;20072;-57
2021/07/04 16:35:42;;;;;;;8.32;5.60;;;;;;;0.01;0.00;59042.03;10310336;28;20048;-57
2021/07/04 16:40:41;;;;;;;8.50;5.63;;;;;;;0.01;0.00;59042.03;10311792;28;20501;-57
2021/07/04 16:45:41;;;;;;;5.57;5.07;;;;;;;0.01;0.00;59042.03;10313107;28;20063;-57
2021/07/04 16:50:41;;;;;;;8.65;5.60;;;;;;;0.01;0.00;59042.03;10310202;28;20459;-55
2021/07/04 16:55:40;;;;;;;10.93;5.00;;;;;;;0.01;0.00;59042.03;10308835;28;20060;-58
2021/07/04 17:00:39;;;;;;;6.88;6.13;;;;;;;0.01;0.00;59042.03;10312827;28;20064;-58
2021/07/04 17:05:38;;;;;;;6.00;4.63;;;;;;;0.01;0.00;59042.03;10312746;28;20067;-58
2021/07/04 17:10:39;;;;;;;8.73;4.95;;;;;;;0.01;0.00;59042.03;10314302;28;20068;-58
2021/07/04 17:15:39;;;;;;;7.47;5.43;;;;;;;0.01;0.00;59042.03;10313253;28;20502;-57
2021/07/04 17:20:39;;;;;;;6.40;5.20;;;;;;;0.01;0.00;59042.03;10307457;28;20074;-56
2021/07/04 17:25:39;;;;;;;22.77;20.10;;;;;;;0.01;0.00;59042.03;10313471;28;20068;-59
2021/07/04 17:30:38;;;;;;;7.40;5.60;;;;;;;0.01;0.00;59042.03;10300740;28;20083;-60
2021/07/04 17:35:37;;;;;;;31.35;27.95;;;;;;;0.01;0.00;59042.03;10310174;28;20064;-59
2021/07/04 17:40:36;;;;;;;20.63;9.75;;;;;;;0.01;0.00;59042.03;10309083;28;20485;-55
2021/07/04 17:45:37;;;;;;;16.02;14.43;;;;;;;0.01;0.00;59042.03;10311800;28;20537;-58
2021/07/04 17:50:37;;;;;;;94.60;85.00;;;;;;;0.01;0.00;59042.03;10304167;28;20076;-55
2021/07/04 17:55:36;;;;;;;90.55;81.35;;;;;;;0.01;0.00;59042.03;10308056;28;20568;-56
2021/07/04 18:00:35;;;;;;;114.85;103.07;;;;;;;0.01;0.00;59042.03;10310647;28;20064;-56
2021/07/04 18:05:35;;;;;;;35.97;29.45;;;;;;;0.01;0.00;59042.03;10280434;28;20064;-57
2021/07/04 18:10:34;;;;;;;116.18;104.25;;;;;;;0.01;0.00;59042.03;10301643;28;20528;-56
2021/07/04 18:15:34;;;;;;;894.70;796.20;;;;;;;0.01;0.00;59042.03;10293549;28;20083;-56
2021/07/04 18:20:47;;;;;;;88.63;79.10;;;;;;;0.01;0.00;59042.03;10297077;28;20068;-57
2021/07/04 18:25:46;;;;;;;456.60;342.05;;;;;;;0.01;0.00;59042.03;10293131;28;20076;-57
2021/07/04 18:30:46;;;;;;;54.40;48.50;;;;;;;0.01;0.00;59042.03;10282420;28;20068;-56
2021/07/04 18:35:46;;;;;;;17.88;13.48;;;;;;;0.01;0.00;59042.03;10303974;28;20076;-57
2021/07/04 18:40:45;;;;;;;12.95;11.60;;;;;;;0.01;0.00;59042.03;10302570;28;20513;-57
2021/07/04 18:45:44;;;;;;;27.50;22.30;;;;;;;0.01;0.00;59042.03;10311754;28;20425;-58
2021/07/04 18:50:43;;;;;;;16.98;15.20;;;;;;;0.01;0.00;59042.03;10292792;28;20083;-58
2021/07/04 18:55:46;;;;;;;35.22;31.42;;;;;;;0.01;0.00;59042.03;10316260;28;20497;-58
2021/07/04 19:00:45;;;;;;;14.90;11.93;;;;;;;0.01;0.00;59042.03;10316152;28;20083;-55
2021/07/04 19:05:46;;;;;;;8.95;8.05;;;;;;;0.01;0.00;59042.03;10309451;28;20075;-58
2021/07/04 19:10:47;;;;;;;20.27;18.13;;;;;;;0.01;0.00;59042.03;10307155;28;20080;-57
2021/07/04 19:15:47;;;;;;;20.55;13.35;;;;;;;0.01;0.00;59042.03;10291901;28;20049;-52
2021/07/04 19:20:49;;;;;;;24.08;20.15;;;;;;;0.01;0.00;59042.03;10304900;28;20112;-58
2021/07/04 19:25:50;;;;;;;13.27;11.88;;;;;;;0.01;0.00;59042.03;10313582;28;20080;-57
2021/07/04 19:30:51;;;;;;;16.30;14.23;;;;;;;0.01;0.00;59042.03;10295214;28;20103;-58
2021/07/04 19:35:50;;;;;;;13.43;11.32;;;;;;;0.01;0.00;59042.03;10289138;28;20474;-58
2021/07/04 19:40:50;;;;;;;8.82;6.72;;;;;;;0.01;0.00;59042.03;10301943;28;20477;-58
2021/07/04 19:45:49;;;;;;;14.32;10.20;;;;;;;0.01;0.00;59042.03;10274784;28;20529;-56
2021/07/04 19:50:48;;;;;;;14.50;11.88;;;;;;;0.01;0.00;59042.03;10250262;28;20442;-57
2021/07/04 19:55:47;;;;;;;15.43;13.52;;;;;;;0.01;0.00;59042.03;10250299;28;20085;-58
2021/07/04 20:00:47;;;;;;;14.18;11.85;;;;;;;0.01;0.00;59042.03;10257131;28;20490;-58
2021/07/04 20:05:45;;;;;;;13.68;9.75;;;;;;;0.01;0.00;59042.03;10246547;28;20071;-58
2021/07/04 20:10:44;;;;;;;17.77;13.85;;;;;;;0.01;0.00;59042.03;10259280;28;20539;-58
2021/07/04 20:15:43;;;;;;;8.18;4.82;;;;;;;0.01;0.00;59042.03;10249924;28;20525;-58
2021/07/04 20:20:43;;;;;;;4.78;4.35;;;;;;;0.01;0.00;59042.03;10249916;28;20060;-57
2021/07/04 20:25:42;;;;;;;12.88;7.57;;;;;;;0.01;0.00;59042.03;10261581;28;20068;-58
2021/07/04 20:30:41;;;;;;;5.22;4.32;;;;;;;0.01;0.00;59042.03;10271418;28;20500;-58
2021/07/04 20:35:40;;;;;;;6.63;3.45;;;;;;;0.01;0.00;59042.03;10251677;28;20069;-58
2021/07/04 20:40:40;;;;;;;5.93;3.88;;;;;;;0.01;0.00;59042.03;10268167;28;20060;-57
2021/07/04 20:45:39;;;;;;;7.30;6.55;;;;;;;0.01;0.00;59042.03;10296730;28;20088;-57
2021/07/04 20:50:37;;;;;;;7.55;3.85;;;;;;;0.01;0.00;59042.03;10294310;28;20072;-56
2021/07/04 20:55:38;;;;;;;8.23;5.18;;;;;;;0.01;0.00;59042.03;10298096;28;20482;-54
2021/07/04 21:00:41;;;;;;;6.70;5.43;;;;;;;0.01;0.00;59042.03;10304170;28;20088;-54
2021/07/04 21:05:40;;;;;;;3.53;3.22;;;;;;;0.01;0.00;59042.03;10307283;28;20438;-55
2021/07/04 21:10:41;;;;;;;6.03;3.20;;;;;;;0.01;0.00;59042.03;10304403;28;20052;-55
2021/07/04 21:15:41;;;;;;;2.47;2.28;;;;;;;0.01;0.00;59042.03;10306418;28;20086;-60
2021/07/04 21:20:40;;;;;;;7.30;2.67;;;;;;;0.01;0.00;59042.03;10319562;28;20437;-59
2021/07/04 21:25:39;;;;;;;4.10;2.30;;;;;;;0.01;0.00;59042.03;10320349;28;20040;-60
2021/07/04 21:30:38;;;;;;;2.60;2.17;;;;;;;0.01;0.00;59042.03;10320343;28;20087;-60
2021/07/04 21:35:39;;;;;;;3.28;2.33;;;;;;;0.01;0.00;59042.03;10318191;28;20076;-58
2021/07/04 21:40:38;;;;;;;6.35;2.20;;;;;;;0.01;0.00;59042.03;10315469;28;20080;-59
2021/07/04 21:45:37;;;;;;;5.68;2.42;;;;;;;0.01;0.00;59042.03;10317905;28;20080;-60
2021/07/04 21:50:36;;;;;;;2.67;2.10;;;;;;;0.01;0.00;59042.03;10319784;28;20489;-59
2021/07/04 21:55:36;;;;;;;3.05;2.00;;;;;;;0.01;0.00;59042.03;10318808;28;20080;-60
2021/07/04 22:00:39;;;;;;;2.88;2.30;;;;;;;0.01;0.00;59042.03;10320048;28;20048;-59
2021/07/04 22:05:39;;;;;;;4.55;2.63;;;;;;;0.01;0.00;59042.03;10319491;28;20045;-60
2021/07/04 22:10:39;;;;;;;4.78;2.47;;;;;;;0.01;0.00;59042.03;10318619;28;20060;-60
2021/07/04 22:15:40;;;;;;;2.10;1.90;;;;;;;0.01;0.00;59042.03;10319662;28;20139;-59
2021/07/04 22:20:39;;;;;;;2.83;2.63;;;;;;;0.01;0.00;59042.03;10319082;28;20084;-60
2021/07/04 22:25:39;;;;;;;2.78;2.28;;;;;;;0.01;0.00;59042.03;10318590;28;20053;-59
2021/07/04 22:30:40;;;;;;;2.22;2.03;;;;;;;0.01;0.00;59042.03;10317474;28;20519;-60
2021/07/04 22:35:39;;;;;;;2.45;2.25;;;;;;;0.01;0.00;59042.03;10318695;28;20068;-60
2021/07/04 22:40:41;;;;;;;2.00;1.90;;;;;;;0.01;0.00;59042.03;10318095;28;20059;-60
2021/07/04 22:45:40;;;;;;;3.83;2.10;;;;;;;0.01;0.00;59042.03;10317585;28;20052;-60
2021/07/04 22:50:44;;;;;;;4.60;2.72;;;;;;;0.01;0.00;59042.03;10318119;28;20043;-60
2021/07/04 22:55:45;;;;;;;4.30;2.05;;;;;;;0.01;0.00;59042.03;10316681;28;20588;-59
2021/07/04 23:00:49;;;;;;;3.75;2.20;;;;;;;0.01;0.00;59042.03;10317548;28;20049;-60
2021/07/04 23:05:48;;;;;;;4.65;2.50;;;;;;;0.01;0.00;59042.03;10316714;28;20461;-59
2021/07/04 23:10:48;;;;;;;7.38;2.13;;;;;;;0.01;0.00;59042.03;10316373;28;20052;-59
2021/07/04 23:15:47;;;;;;;2.92;2.20;;;;;;;0.01;0.00;59042.03;10316517;28;20548;-59
2021/07/04 23:20:46;;;;;;;2.17;1.98;;;;;;;0.01;0.00;59042.03;10317108;28;20040;-60
2021/07/04 23:25:47;;;;;;;5.43;2.13;;;;;;;0.01;0.00;59042.03;10316787;28;20537;-60
2021/07/04 23:30:46;;;;;;;2.38;2.10;;;;;;;0.01;0.00;59042.03;10316579;28;20083;-60
2021/07/04 23:35:46;;;;;;;2.85;2.50;;;;;;;0.01;0.00;59042.03;10316798;28;20082;-60
2021/07/04 23:40:45;;;;;;;4.35;2.60;;;;;;;0.01;0.00;59042.03;10315617;28;20052;-60
2021/07/04 23:45:47;;;;;;;2.40;2.08;;;;;;;0.01;0.00;59042.03;10315208;28;20061;-60
2021/07/04 23:50:46;;;;;;;2.40;2.20;;;;;;;0.01;0.00;59042.03;10316353;28;20055;-59